Time;durP1;ratioP1;P1;durP2;ratioP2;P2;SDS_P1;SDS_P2;PMS_P1;PMS_P2;Temp;Humidity;BMP_temperature;BMP_pressure;BME280_temperature;BME280_humidity;BME280_pressure;Samples;Min_cycle;Max_cycle;Signal;HPM_P1;HPM_P2
2023/04/19 00:01:38;;;;;;;8.75;2.20;;;;;;;;;;4919014;28;20047;-66
2023/04/19 00:04:06;;;;;;;10.23;3.00;;;;;;;;;;4916067;28;20055;-69
2023/04/19 00:06:35;;;;;;;8.60;2.50;;;;;;;;;;4914469;29;20849;-69
2023/04/19 00:09:01;;;;;;;9.52;2.53;;;;;;;;;;4923287;28;20464;-68
2023/04/19 00:11:29;;;;;;;6.53;2.65;;;;;;;;;;4923793;28;20056;-66
2023/04/19 00:13:57;;;;;;;4.88;2.05;;;;;;;;;;4916327;28;20186;-67
2023/04/19 00:16:25;;;;;;;8.40;2.63;;;;;;;;;;4898744;28;20066;-67
2023/04/19 00:18:52;;;;;;;9.80;2.80;;;;;;;;;;4912557;28;20123;-66
2023/04/19 00:21:18;;;;;;;11.93;2.83;;;;;;;;;;4915024;28;20055;-69
2023/04/19 00:23:44;;;;;;;10.32;2.25;;;;;;;;;;4910523;28;20516;-66
2023/04/19 00:26:14;;;;;;;11.90;2.50;;;;;;;;;;4911065;28;20087;-66
2023/04/19 00:28:40;;;;;;;7.55;2.28;;;;;;;;;;4911950;28;20046;-65
2023/04/19 00:31:06;;;;;;;11.07;2.70;;;;;;;;;;4911273;29;20526;-68
2023/04/19 00:33:32;;;;;;;6.72;2.55;;;;;;;;;;4911608;29;20193;-67
2023/04/19 00:35:58;;;;;;;9.48;2.58;;;;;;;;;;4913447;28;20060;-65
2023/04/19 00:38:25;;;;;;;7.93;2.85;;;;;;;;;;4912880;28;20058;-67
2023/04/19 00:40:51;;;;;;;8.65;2.47;;;;;;;;;;4911833;28;20059;-66
2023/04/19 00:43:18;;;;;;;8.45;2.63;;;;;;;;;;4911298;28;20052;-68
2023/04/19 00:45:48;;;;;;;9.30;2.72;;;;;;;;;;4915133;28;20122;-68
2023/04/19 00:48:14;;;;;;;8.75;2.80;;;;;;;;;;4914597;28;20065;-67
2023/04/19 00:50:44;;;;;;;8.43;2.70;;;;;;;;;;4913417;28;20055;-67
2023/04/19 00:53:10;;;;;;;9.93;3.03;;;;;;;;;;4912999;28;20966;-71
2023/04/19 00:55:39;;;;;;;9.90;2.92;;;;;;;;;;4911699;28;21942;-69
2023/04/19 00:58:07;;;;;;;9.07;3.13;;;;;;;;;;4914038;28;20055;-67
2023/04/19 01:00:36;;;;;;;9.38;3.05;;;;;;;;;;4914273;28;20067;-67
2023/04/19 01:03:02;;;;;;;7.97;3.13;;;;;;;;;;4913044;28;20550;-66
2023/04/19 01:05:29;;;;;;;8.65;3.03;;;;;;;;;;4913947;28;20079;-67
2023/04/19 01:07:55;;;;;;;10.00;3.35;;;;;;;;;;4913848;28;20460;-67
2023/04/19 01:10:22;;;;;;;9.80;3.17;;;;;;;;;;4913224;28;20059;-66
2023/04/19 01:12:48;;;;;;;8.98;3.30;;;;;;;;;;4921008;28;20048;-67
2023/04/19 01:15:14;;;;;;;12.20;3.15;;;;;;;;;;4912142;28;20059;-66
2023/04/19 01:17:41;;;;;;;7.35;2.88;;;;;;;;;;4912943;28;20051;-66
2023/04/19 01:20:09;;;;;;;10.07;3.17;;;;;;;;;;4908435;28;20047;-66
2023/04/19 01:22:36;;;;;;;11.75;3.65;;;;;;;;;;4911438;28;20066;-66
2023/04/19 01:25:06;;;;;;;10.35;3.63;;;;;;;;;;4910829;28;20074;-68
2023/04/19 01:27:32;;;;;;;9.65;3.45;;;;;;;;;;4913321;28;20058;-67
2023/04/19 01:29:58;;;;;;;8.05;3.53;;;;;;;;;;4912358;28;20489;-66
2023/04/19 01:32:28;;;;;;;13.30;3.60;;;;;;;;;;4909699;28;20111;-67
2023/04/19 01:34:56;;;;;;;12.30;3.85;;;;;;;;;;4909505;29;20051;-67
2023/04/19 01:37:21;;;;;;;14.60;3.92;;;;;;;;;;4910987;28;20055;-67
2023/04/19 01:39:48;;;;;;;13.32;3.90;;;;;;;;;;4911928;29;20048;-67
2023/04/19 01:42:15;;;;;;;12.98;4.13;;;;;;;;;;4917080;28;20059;-68
2023/04/19 01:44:42;;;;;;;13.90;3.75;;;;;;;;;;4911905;28;20383;-66
2023/04/19 01:47:08;;;;;;;11.77;4.13;;;;;;;;;;4912024;28;20052;-68
2023/04/19 01:49:36;;;;;;;13.65;3.92;;;;;;;;;;4911669;29;20055;-69
2023/04/19 01:52:01;;;;;;;10.35;3.75;;;;;;;;;;4910159;28;20059;-68
2023/04/19 01:54:29;;;;;;;8.25;3.83;;;;;;;;;;4911606;28;20051;-66
2023/04/19 01:56:54;;;;;;;10.40;3.70;;;;;;;;;;4912241;28;20512;-67
2023/04/19 01:59:20;;;;;;;9.95;3.97;;;;;;;;;;4910900;28;20056;-67
2023/04/19 02:01:48;;;;;;;11.70;3.85;;;;;;;;;;4911238;28;20078;-67
2023/04/19 02:04:14;;;;;;;11.88;3.55;;;;;;;;;;4910319;28;20397;-67
2023/04/19 02:06:39;;;;;;;9.77;4.10;;;;;;;;;;4910569;28;20636;-71
2023/04/19 02:09:05;;;;;;;10.43;4.05;;;;;;;;;;4911375;28;20375;-67
2023/04/19 02:11:31;;;;;;;11.30;4.13;;;;;;;;;;4919307;28;20415;-67
2023/04/19 02:13:58;;;;;;;7.63;3.78;;;;;;;;;;4919860;29;20052;-69
2023/04/19 02:16:24;;;;;;;10.00;3.95;;;;;;;;;;4917908;28;20535;-66
2023/04/19 02:18:52;;;;;;;9.57;3.75;;;;;;;;;;4913923;28;22031;-65
2023/04/19 02:21:18;;;;;;;13.13;4.43;;;;;;;;;;4911468;28;20047;-67
2023/04/19 02:23:45;;;;;;;11.98;3.70;;;;;;;;;;4909932;28;20834;-67
2023/04/19 02:26:11;;;;;;;12.60;3.92;;;;;;;;;;4911474;28;20158;-68
2023/04/19 02:28:38;;;;;;;11.82;3.90;;;;;;;;;;4910348;28;20103;-69
2023/04/19 02:31:05;;;;;;;8.93;3.83;;;;;;;;;;4910228;28;20086;-70
2023/04/19 02:33:31;;;;;;;13.50;4.13;;;;;;;;;;4910594;28;20484;-66
2023/04/19 02:35:57;;;;;;;15.13;4.85;;;;;;;;;;4910467;28;20055;-68
2023/04/19 02:38:23;;;;;;;14.77;3.88;;;;;;;;;;4912143;28;20379;-68
2023/04/19 02:40:49;;;;;;;10.32;4.13;;;;;;;;;;4909020;28;20569;-67
2023/04/19 02:43:16;;;;;;;10.95;4.30;;;;;;;;;;4913041;28;20408;-67
2023/04/19 02:45:41;;;;;;;9.70;3.90;;;;;;;;;;4910410;28;20044;-67
2023/04/19 02:48:07;;;;;;;8.55;3.80;;;;;;;;;;4909106;28;20052;-67
2023/04/19 02:50:36;;;;;;;6.45;3.13;;;;;;;;;;4911412;28;20393;-65
2023/04/19 02:53:03;;;;;;;12.18;3.92;;;;;;;;;;4911266;28;20430;-66
2023/04/19 02:55:29;;;;;;;9.57;4.07;;;;;;;;;;4908619;28;20107;-66
2023/04/19 02:57:55;;;;;;;13.70;4.90;;;;;;;;;;4910626;28;20553;-67
2023/04/19 03:00:21;;;;;;;8.10;3.83;;;;;;;;;;4911597;29;20312;-67
2023/04/19 03:02:47;;;;;;;10.10;4.85;;;;;;;;;;4911036;28;20064;-68
2023/04/19 03:05:13;;;;;;;7.38;4.35;;;;;;;;;;4908801;28;20048;-69
2023/04/19 03:07:39;;;;;;;12.30;4.28;;;;;;;;;;4923854;28;20134;-68
2023/04/19 03:10:06;;;;;;;13.98;4.18;;;;;;;;;;4924005;28;20073;-66
2023/04/19 03:12:32;;;;;;;9.95;4.07;;;;;;;;;;4912335;29;20059;-69
2023/04/19 03:14:58;;;;;;;13.73;4.60;;;;;;;;;;4912646;28;20111;-68
2023/04/19 03:17:24;;;;;;;8.65;4.15;;;;;;;;;;4926123;28;20115;-67
2023/04/19 03:19:50;;;;;;;9.82;3.88;;;;;;;;;;4916806;28;20051;-66
2023/04/19 03:22:16;;;;;;;11.55;4.35;;;;;;;;;;4914070;28;20079;-67
2023/04/19 03:24:41;;;;;;;8.90;3.83;;;;;;;;;;4913842;28;20056;-66
2023/04/19 03:27:07;;;;;;;10.98;4.35;;;;;;;;;;4913430;28;20063;-68
2023/04/19 03:29:33;;;;;;;10.90;4.38;;;;;;;;;;4908850;28;20163;-68
2023/04/19 03:32:00;;;;;;;11.93;4.25;;;;;;;;;;4911433;28;20087;-67
2023/04/19 03:34:26;;;;;;;10.27;4.05;;;;;;;;;;4914231;28;20083;-67
2023/04/19 03:36:52;;;;;;;13.00;4.47;;;;;;;;;;4914497;28;20071;-67
2023/04/19 03:39:18;;;;;;;12.02;4.18;;;;;;;;;;4915146;28;20075;-69
2023/04/19 03:41:44;;;;;;;8.05;4.65;;;;;;;;;;4918101;28;20047;-68
2023/04/19 03:44:10;;;;;;;12.68;4.70;;;;;;;;;;4917456;28;20063;-71
2023/04/19 03:46:36;;;;;;;11.70;4.03;;;;;;;;;;4912319;28;20051;-68
2023/04/19 03:49:02;;;;;;;13.45;4.80;;;;;;;;;;4906578;28;20047;-69
2023/04/19 03:51:28;;;;;;;7.50;3.95;;;;;;;;;;4912732;28;20114;-66
2023/04/19 03:53:54;;;;;;;11.07;4.63;;;;;;;;;;4911202;28;20056;-68
2023/04/19 03:56:20;;;;;;;8.63;4.07;;;;;;;;;;4912770;28;22293;-68
2023/04/19 03:58:46;;;;;;;10.45;4.20;;;;;;;;;;4911794;28;20423;-66
2023/04/19 04:01:20;;;;;;;10.95;4.10;;;;;;;;;;4911982;28;20159;-66
2023/04/19 04:03:46;;;;;;;9.38;4.45;;;;;;;;;;4914987;28;20378;-68
2023/04/19 04:06:12;;;;;;;9.80;4.10;;;;;;;;;;4914178;28;20584;-66
2023/04/19 04:08:38;;;;;;;11.43;4.25;;;;;;;;;;4896267;28;20058;-66
2023/04/19 04:11:05;;;;;;;13.05;4.38;;;;;;;;;;4925390;28;20468;-67
2023/04/19 04:13:31;;;;;;;10.20;4.25;;;;;;;;;;4912617;28;20056;-66
2023/04/19 04:15:57;;;;;;;10.10;4.20;;;;;;;;;;4912445;28;20141;-67
2023/04/19 04:18:25;;;;;;;10.77;4.15;;;;;;;;;;4913004;28;20177;-69
2023/04/19 04:20:52;;;;;;;9.95;4.25;;;;;;;;;;4910930;28;20091;-67
2023/04/19 04:23:20;;;;;;;9.23;4.43;;;;;;;;;;4912061;28;20059;-69
2023/04/19 04:25:46;;;;;;;8.48;4.47;;;;;;;;;;4913056;28;20048;-67
2023/04/19 04:28:12;;;;;;;12.52;4.45;;;;;;;;;;4929350;28;20055;-68
2023/04/19 04:30:40;;;;;;;13.65;5.43;;;;;;;;;;4913887;28;20090;-67
2023/04/19 04:33:07;;;;;;;8.18;4.60;;;;;;;;;;4910759;28;20424;-71
2023/04/19 04:35:34;;;;;;;12.40;4.78;;;;;;;;;;4912419;28;20062;-68
2023/04/19 04:37:59;;;;;;;10.48;4.25;;;;;;;;;;4913938;28;20051;-67
2023/04/19 04:40:25;;;;;;;12.10;4.95;;;;;;;;;;4914857;28;20047;-66
2023/04/19 04:42:51;;;;;;;12.02;4.57;;;;;;;;;;4909841;28;20198;-67
2023/04/19 04:45:17;;;;;;;11.88;4.82;;;;;;;;;;4923005;28;20059;-67
2023/04/19 04:47:47;;;;;;;8.23;4.82;;;;;;;;;;4906243;28;20056;-67
2023/04/19 04:50:15;;;;;;;7.68;4.32;;;;;;;;;;4913756;28;20556;-70
2023/04/19 04:52:40;;;;;;;9.02;4.75;;;;;;;;;;4914027;28;20291;-67
2023/04/19 04:55:07;;;;;;;8.23;4.53;;;;;;;;;;4911503;28;20067;-67
2023/04/19 04:57:35;;;;;;;11.23;5.13;;;;;;;;;;4911773;28;20082;-70
2023/04/19 05:00:05;;;;;;;13.75;5.57;;;;;;;;;;4913390;28;20055;-66
2023/04/19 05:03:44;;;;;;;14.52;4.78;;;;;;;;;;4914448;28;20048;-67
2023/04/19 05:06:44;;;;;;;10.30;5.00;;;;;;;;;;4912139;28;20072;-70
2023/04/19 05:09:10;;;;;;;11.02;5.47;;;;;;;;;;4909661;28;20051;-67
2023/04/19 05:11:36;;;;;;;13.50;5.93;;;;;;;;;;4921075;28;20062;-67
2023/04/19 05:14:05;;;;;;;15.30;5.60;;;;;;;;;;4910084;28;20060;-67
2023/04/19 05:16:31;;;;;;;14.10;5.97;;;;;;;;;;4922592;28;20070;-67
2023/04/19 05:18:57;;;;;;;14.23;6.50;;;;;;;;;;4909257;28;20115;-68
2023/04/19 05:22:03;;;;;;;11.18;5.18;;;;;;;;;;4908274;28;20459;-69
2023/04/19 05:25:44;;;;;;;13.25;5.43;;;;;;;;;;4911225;28;20059;-66
2023/04/19 05:29:24;;;;;;;10.60;5.10;;;;;;;;;;4918344;28;20067;-67
2023/04/19 05:33:04;;;;;;;10.30;5.05;;;;;;;;;;4909310;28;20047;-68
2023/04/19 05:36:46;;;;;;;11.80;5.05;;;;;;;;;;4913193;28;20526;-66
2023/04/19 05:40:27;;;;;;;10.95;5.22;;;;;;;;;;4911883;28;20081;-67
2023/04/19 05:44:06;;;;;;;13.07;5.47;;;;;;;;;;4910760;28;20051;-69
2023/04/19 05:47:47;;;;;;;8.80;4.60;;;;;;;;;;4911524;28;20697;-69
2023/04/19 05:51:27;;;;;;;12.65;5.32;;;;;;;;;;4907403;28;20523;-67
2023/04/19 05:55:07;;;;;;;13.90;5.70;;;;;;;;;;4912461;28;20110;-67
2023/04/19 05:58:48;;;;;;;9.38;4.88;;;;;;;;;;4910149;28;20166;-68
2023/04/19 06:02:28;;;;;;;9.23;4.68;;;;;;;;;;4909141;28;20441;-69
2023/04/19 06:06:09;;;;;;;9.98;4.82;;;;;;;;;;4910342;28;20083;-68
2023/04/19 06:09:10;;;;;;;8.70;4.88;;;;;;;;;;4910714;29;22115;-68
2023/04/19 06:11:37;;;;;;;14.07;4.80;;;;;;;;;;4914101;28;20408;-70
2023/04/19 06:14:42;;;;;;;11.50;5.32;;;;;;;;;;4913071;29;20055;-67
2023/04/19 06:18:23;;;;;;;13.77;5.13;;;;;;;;;;4911523;28;20044;-68
2023/04/19 06:22:03;;;;;;;14.38;5.28;;;;;;;;;;4908574;28;20062;-67
2023/04/19 06:25:44;;;;;;;14.18;6.03;;;;;;;;;;4911479;28;20063;-72
2023/04/19 06:29:25;;;;;;;13.45;5.20;;;;;;;;;;4919504;28;20056;-69
2023/04/19 06:33:05;;;;;;;8.82;5.45;;;;;;;;;;4910502;28;20062;-68
2023/04/19 06:36:45;;;;;;;20.30;5.65;;;;;;;;;;4908187;28;20051;-70
2023/04/19 06:40:27;;;;;;;15.63;5.75;;;;;;;;;;4910512;28;20058;-68
2023/04/19 06:44:06;;;;;;;12.20;5.30;;;;;;;;;;4910867;28;20058;-69
2023/04/19 06:47:46;;;;;;;15.52;6.07;;;;;;;;;;4906375;28;20467;-69
2023/04/19 06:51:26;;;;;;;17.63;5.53;;;;;;;;;;4909967;28;20062;-69
2023/04/19 06:55:08;;;;;;;22.80;5.85;;;;;;;;;;4908973;28;20460;-69
2023/04/19 06:58:48;;;;;;;13.55;5.57;;;;;;;;;;4909152;28;20126;-71
2023/04/19 07:02:29;;;;;;;13.52;4.90;;;;;;;;;;4910238;28;20040;-71
2023/04/19 07:06:09;;;;;;;13.75;5.13;;;;;;;;;;4910369;28;20067;-69
2023/04/19 07:09:49;;;;;;;13.50;4.75;;;;;;;;;;4909369;28;20046;-70
2023/04/19 07:13:30;;;;;;;9.38;3.95;;;;;;;;;;4910554;28;20052;-69
2023/04/19 07:17:11;;;;;;;13.90;4.00;;;;;;;;;;4907642;28;20072;-68
2023/04/19 07:20:50;;;;;;;12.60;4.20;;;;;;;;;;4906503;28;20044;-70
2023/04/19 07:24:32;;;;;;;8.55;3.60;;;;;;;;;;4908105;29;20055;-70
2023/04/19 07:28:12;;;;;;;10.45;3.47;;;;;;;;;;4911024;28;20776;-70
2023/04/19 07:31:54;;;;;;;6.93;3.28;;;;;;;;;;4910033;28;20082;-71
2023/04/19 07:35:33;;;;;;;7.60;2.80;;;;;;;;;;4908017;28;20130;-70
2023/04/19 07:39:13;;;;;;;8.45;3.30;;;;;;;;;;4904604;28;20051;-72
2023/04/19 07:42:54;;;;;;;8.80;2.85;;;;;;;;;;4906854;28;20111;-72
2023/04/19 07:46:34;;;;;;;12.88;3.28;;;;;;;;;;4908729;28;20539;-71
2023/04/19 07:50:14;;;;;;;10.10;3.38;;;;;;;;;;4909936;28;20138;-69
2023/04/19 07:53:55;;;;;;;8.55;3.63;;;;;;;;;;4909806;28;20139;-67
2023/04/19 07:57:36;;;;;;;7.75;3.38;;;;;;;;;;4910306;28;20075;-71
2023/04/19 08:01:16;;;;;;;8.55;3.08;;;;;;;;;;4911639;28;20107;-71
2023/04/19 08:04:57;;;;;;;7.53;3.28;;;;;;;;;;4910284;28;20035;-69
2023/04/19 08:08:37;;;;;;;12.00;3.20;;;;;;;;;;4909265;28;20126;-71
2023/04/19 08:12:19;;;;;;;14.60;3.08;;;;;;;;;;4919196;28;20062;-75
2023/04/19 08:15:59;;;;;;;9.45;3.08;;;;;;;;;;4911174;28;20356;-70
2023/04/19 08:19:41;;;;;;;8.75;2.70;;;;;;;;;;4911636;28;20050;-70
2023/04/19 08:23:23;;;;;;;73.47;6.85;;;;;;;;;;4912945;28;20544;-71
2023/04/19 08:27:03;;;;;;;8.77;2.90;;;;;;;;;;4911614;29;20436;-74
2023/04/19 08:30:44;;;;;;;11.82;3.25;;;;;;;;;;4914724;28;20043;-74
2023/04/19 08:34:24;;;;;;;5.47;2.67;;;;;;;;;;4913005;28;20131;-72
2023/04/19 08:38:04;;;;;;;11.85;3.28;;;;;;;;;;4912744;28;20063;-74
2023/04/19 08:41:44;;;;;;;8.95;2.60;;;;;;;;;;4913098;28;20090;-74
2023/04/19 08:45:26;;;;;;;8.48;2.60;;;;;;;;;;4910612;28;20083;-72
2023/04/19 08:49:06;;;;;;;7.70;2.80;;;;;;;;;;4910983;28;20050;-74
2023/04/19 08:52:46;;;;;;;14.32;2.85;;;;;;;;;;4912873;28;20658;-71
2023/04/19 08:56:27;;;;;;;4.63;2.40;;;;;;;;;;4913498;28;20142;-71
2023/04/19 09:00:09;;;;;;;5.28;2.08;;;;;;;;;;4910263;28;20043;-70
2023/04/19 09:03:49;;;;;;;6.63;2.47;;;;;;;;;;4910540;28;20043;-72
2023/04/19 09:07:29;;;;;;;3.70;2.30;;;;;;;;;;4911366;28;20055;-70
2023/04/19 09:11:16;;;;;;;7.18;3.15;;;;;;;;;;4918584;28;20976;-72
2023/04/19 09:14:43;;;;;;;6.78;2.72;;;;;;;;;;4911383;28;20626;-71
2023/04/19 09:17:54;;;;;;;8.13;2.80;;;;;;;;;;4912571;28;20624;-74
2023/04/19 09:21:35;;;;;;;6.77;2.60;;;;;;;;;;4912121;28;20048;-71
2023/04/19 09:25:20;;;;;;;9.45;2.75;;;;;;;;;;4911840;28;20063;-72
2023/04/19 09:29:06;;;;;;;5.53;2.58;;;;;;;;;;4921832;28;20417;-73
2023/04/19 09:32:43;;;;;;;9.18;2.95;;;;;;;;;;4911480;28;20158;-72
2023/04/19 09:36:24;;;;;;;7.40;2.50;;;;;;;;;;4911851;28;20123;-75
2023/04/19 09:40:07;;;;;;;4.90;2.13;;;;;;;;;;4913448;28;20043;-72
2023/04/19 09:43:47;;;;;;;6.05;2.47;;;;;;;;;;4912434;28;20069;-71
2023/04/19 09:47:41;;;;;;;5.22;2.70;;;;;;;;;;4913203;28;20055;-70
2023/04/19 09:51:39;;;;;;;9.95;2.50;;;;;;;;;;4912098;28;20075;-73
2023/04/19 09:55:20;;;;;;;6.63;2.10;;;;;;;;;;4912399;28;20064;-72
2023/04/19 09:59:01;;;;;;;3.95;2.28;;;;;;;;;;4910720;28;20610;-74
2023/04/19 10:02:43;;;;;;;9.13;2.50;;;;;;;;;;4908996;28;21375;-72
2023/04/19 10:06:24;;;;;;;9.48;2.75;;;;;;;;;;4910937;28;20628;-71
2023/04/19 10:10:05;;;;;;;9.95;2.92;;;;;;;;;;4914613;28;20071;-72
2023/04/19 10:13:51;;;;;;;12.30;2.83;;;;;;;;;;4920444;28;20269;-73
2023/04/19 10:17:11;;;;;;;;;;;;;;;;;;4916049;28;20479;-72
2023/04/19 10:20:32;;;;;;;13.27;2.92;;;;;;;;;;4910356;28;20272;-73
2023/04/19 10:24:13;;;;;;;8.05;2.70;;;;;;;;;;4907872;28;20177;-72
2023/04/19 10:27:55;;;;;;;13.00;2.55;;;;;;;;;;4910166;28;20142;-73
2023/04/19 10:31:39;;;;;;;6.22;2.65;;;;;;;;;;4913799;28;20047;-70
2023/04/19 10:35:22;;;;;;;3.47;1.88;;;;;;;;;;4909454;28;20314;-72
2023/04/19 10:39:20;;;;;;;5.45;1.98;;;;;;;;;;4909619;28;20082;-72
2023/04/19 10:42:59;;;;;;;5.72;2.25;;;;;;;;;;4908992;28;20055;-71
2023/04/19 10:46:27;;;;;;;4.65;2.30;;;;;;;;;;4913860;28;20267;-71
2023/04/19 10:50:10;;;;;;;8.23;2.58;;;;;;;;;;4910104;28;20082;-72
2023/04/19 10:53:49;;;;;;;7.20;3.10;;;;;;;;;;4911597;28;20051;-74
2023/04/19 10:57:36;;;;;;;5.45;2.72;;;;;;;;;;4908756;28;20131;-72
2023/04/19 11:01:19;;;;;;;5.45;2.10;;;;;;;;;;4911400;28;20278;-75
2023/04/19 11:04:30;;;;;;;4.55;2.25;;;;;;;;;;4911895;28;22255;-74
2023/04/19 11:08:10;;;;;;;5.68;2.10;;;;;;;;;;4910372;28;20059;-72
2023/04/19 11:11:55;;;;;;;7.32;2.22;;;;;;;;;;4923989;28;20409;-72
2023/04/19 11:15:35;;;;;;;5.45;1.77;;;;;;;;;;4909707;28;20345;-69
2023/04/19 11:19:16;;;;;;;8.70;2.75;;;;;;;;;;4913837;28;20066;-75
2023/04/19 11:23:05;;;;;;;6.05;1.80;;;;;;;;;;4910889;28;20068;-74
2023/04/19 11:26:45;;;;;;;7.40;2.28;;;;;;;;;;4912315;28;20652;-72
2023/04/19 11:30:13;;;;;;;6.90;2.42;;;;;;;;;;4910947;28;20138;-73
2023/04/19 11:33:53;;;;;;;8.48;2.65;;;;;;;;;;4909495;28;20052;-72
2023/04/19 11:37:35;;;;;;;8.68;2.50;;;;;;;;;;4910469;28;20202;-70
2023/04/19 11:41:21;;;;;;;6.30;2.05;;;;;;;;;;4912334;28;20054;-72
2023/04/19 11:45:02;;;;;;;8.13;2.70;;;;;;;;;;4915387;28;20058;-71
2023/04/19 11:48:45;;;;;;;9.10;2.58;;;;;;;;;;4913413;28;20055;-70
2023/04/19 11:52:26;;;;;;;8.02;2.25;;;;;;;;;;4914370;28;20461;-73
2023/04/19 11:56:09;;;;;;;8.95;2.17;;;;;;;;;;4913939;28;20047;-72
2023/04/19 11:59:49;;;;;;;7.40;2.22;;;;;;;;;;4911924;29;20050;-72
2023/04/19 12:03:29;;;;;;;6.10;2.08;;;;;;;;;;4914542;28;20629;-72
2023/04/19 12:07:15;;;;;;;7.65;1.80;;;;;;;;;;4914087;28;20044;-72
2023/04/19 12:10:57;;;;;;;9.98;2.17;;;;;;;;;;4912696;28;20511;-74
2023/04/19 12:14:30;;;;;;;7.65;2.17;;;;;;;;;;4915583;28;20055;-71
2023/04/19 12:17:12;;;;;;;3.97;1.83;;;;;;;;;;4911530;28;20142;-74
2023/04/19 12:19:46;;;;;;;20.80;3.08;;;;;;;;;;4913406;29;20090;-73
2023/04/19 12:22:19;;;;;;;24.20;3.38;;;;;;;;;;4914333;28;20058;-74
2023/04/19 12:24:45;;;;;;;34.50;4.00;;;;;;;;;;4913916;28;20053;-73
2023/04/19 12:27:16;;;;;;;14.60;2.50;;;;;;;;;;4914030;28;20077;-74
2023/04/19 12:29:43;;;;;;;12.80;2.42;;;;;;;;;;4911825;29;20056;-74
2023/04/19 12:32:10;;;;;;;11.60;2.65;;;;;;;;;;4912087;28;20518;-75
2023/04/19 12:34:35;;;;;;;9.43;2.40;;;;;;;;;;4911376;28;20060;-72
2023/04/19 12:37:04;;;;;;;7.97;2.45;;;;;;;;;;4911580;28;20183;-72
2023/04/19 12:39:30;;;;;;;25.42;3.75;;;;;;;;;;4910912;28;20048;-74
2023/04/19 12:41:56;;;;;;;6.70;1.80;;;;;;;;;;4911306;28;20071;-73
2023/04/19 12:44:22;;;;;;;3.60;2.00;;;;;;;;;;4911538;28;20056;-72
2023/04/19 12:46:49;;;;;;;5.15;1.50;;;;;;;;;;4912915;28;20060;-72
2023/04/19 12:49:17;;;;;;;20.27;2.25;;;;;;;;;;4910854;28;20060;-73
2023/04/19 12:51:46;;;;;;;6.18;1.77;;;;;;;;;;4910439;28;20052;-73
2023/04/19 12:54:12;;;;;;;9.57;1.95;;;;;;;;;;4910990;28;20056;-75
2023/04/19 12:56:38;;;;;;;11.05;3.00;;;;;;;;;;4913253;28;20142;-70
2023/04/19 12:59:04;;;;;;;18.65;2.67;;;;;;;;;;4912096;29;20051;-74
2023/04/19 13:01:31;;;;;;;11.25;2.63;;;;;;;;;;4909735;29;20266;-71
2023/04/19 13:03:57;;;;;;;3.88;1.85;;;;;;;;;;4909210;28;20144;-72
2023/04/19 13:06:23;;;;;;;18.10;2.45;;;;;;;;;;4926655;28;20051;-73
2023/04/19 13:08:49;;;;;;;13.15;2.83;;;;;;;;;;4925156;28;20062;-72
2023/04/19 13:11:21;;;;;;;6.03;2.38;;;;;;;;;;4914627;28;20066;-71
2023/04/19 13:13:50;;;;;;;6.32;1.98;;;;;;;;;;4934303;28;20416;-72
2023/04/19 13:16:18;;;;;;;8.85;2.33;;;;;;;;;;4928686;29;20054;-73
2023/04/19 13:18:46;;;;;;;7.07;1.80;;;;;;;;;;4911279;28;20747;-73
2023/04/19 13:21:14;;;;;;;2.50;1.48;;;;;;;;;;4924245;28;20078;-72
2023/04/19 13:23:43;;;;;;;5.50;2.00;;;;;;;;;;4909858;29;20052;-73
2023/04/19 13:26:11;;;;;;;3.88;1.77;;;;;;;;;;4915931;28;20050;-73
2023/04/19 13:28:36;;;;;;;3.60;1.38;;;;;;;;;;4913640;29;20141;-73
2023/04/19 13:31:04;;;;;;;5.13;1.60;;;;;;;;;;4911219;28;20732;-72
2023/04/19 13:33:30;;;;;;;4.72;1.30;;;;;;;;;;4907565;28;20107;-72
2023/04/19 13:35:56;;;;;;;4.07;1.50;;;;;;;;;;4923235;28;20109;-72
2023/04/19 13:38:23;;;;;;;6.13;1.83;;;;;;;;;;4910531;28;20052;-73
2023/04/19 13:40:50;;;;;;;4.50;1.75;;;;;;;;;;4911417;28;20063;-73
2023/04/19 13:43:17;;;;;;;4.57;1.38;;;;;;;;;;4911436;28;20059;-74
2023/04/19 13:45:43;;;;;;;6.32;1.95;;;;;;;;;;4914769;28;20410;-72
2023/04/19 13:48:09;;;;;;;21.90;2.67;;;;;;;;;;4910981;28;20119;-73
2023/04/19 13:50:35;;;;;;;11.40;2.10;;;;;;;;;;4919970;28;20396;-72
2023/04/19 13:53:01;;;;;;;17.85;2.33;;;;;;;;;;4911257;28;20036;-73
2023/04/19 13:55:27;;;;;;;63.40;4.07;;;;;;;;;;4912034;28;20409;-72
2023/04/19 13:57:53;;;;;;;20.23;2.35;;;;;;;;;;4909947;28;20587;-74
2023/04/19 14:00:20;;;;;;;23.05;3.63;;;;;;;;;;4915906;28;20070;-71
2023/04/19 14:02:49;;;;;;;36.13;2.67;;;;;;;;;;4896982;28;20066;-72
2023/04/19 14:05:15;;;;;;;17.38;3.00;;;;;;;;;;4911261;28;20059;-72
2023/04/19 14:07:42;;;;;;;6.35;1.55;;;;;;;;;;4913145;28;20047;-73
2023/04/19 14:10:11;;;;;;;8.75;1.58;;;;;;;;;;4912310;28;21090;-73
2023/04/19 14:12:43;;;;;;;6.68;1.70;;;;;;;;;;4919133;28;20536;-73
2023/04/19 14:15:11;;;;;;;6.88;1.60;;;;;;;;;;4912177;28;20056;-75
2023/04/19 14:17:38;;;;;;;5.53;1.67;;;;;;;;;;4909085;29;20056;-74
2023/04/19 14:20:06;;;;;;;9.57;1.73;;;;;;;;;;4912807;28;20274;-76
2023/04/19 14:22:32;;;;;;;9.00;2.35;;;;;;;;;;4910249;28;22288;-75
2023/04/19 14:24:59;;;;;;;3.80;1.60;;;;;;;;;;4913608;28;20043;-74
2023/04/19 14:27:25;;;;;;;7.50;1.70;;;;;;;;;;4913404;28;20510;-74
2023/04/19 14:29:51;;;;;;;7.18;1.80;;;;;;;;;;4914660;28;20062;-73
2023/04/19 14:32:19;;;;;;;7.07;1.88;;;;;;;;;;4907259;29;20414;-74
2023/04/19 14:34:46;;;;;;;13.50;1.92;;;;;;;;;;4910107;28;20432;-75
2023/04/19 14:37:13;;;;;;;12.13;2.10;;;;;;;;;;4910651;28;20047;-74
2023/04/19 14:39:39;;;;;;;12.70;2.28;;;;;;;;;;4910227;28;20062;-73
2023/04/19 14:42:08;;;;;;;20.00;3.10;;;;;;;;;;4914635;28;20064;-74
2023/04/19 14:44:34;;;;;;;8.05;1.80;;;;;;;;;;4915755;28;20425;-72
2023/04/19 14:47:01;;;;;;;9.57;2.20;;;;;;;;;;4911144;28;20055;-74
2023/04/19 14:49:27;;;;;;;3.70;1.70;;;;;;;;;;4916883;28;20059;-74
2023/04/19 14:51:53;;;;;;;11.52;1.88;;;;;;;;;;4908231;28;20053;-77
2023/04/19 14:54:19;;;;;;;8.65;1.90;;;;;;;;;;4922950;28;20048;-72
2023/04/19 14:56:45;;;;;;;3.28;1.50;;;;;;;;;;4910986;28;20051;-74
2023/04/19 14:59:12;;;;;;;8.38;2.30;;;;;;;;;;4914414;28;20052;-76
2023/04/19 15:01:37;;;;;;;4.75;1.75;;;;;;;;;;4911277;28;20058;-78
2023/04/19 15:04:04;;;;;;;10.95;2.00;;;;;;;;;;4907357;28;20055;-73
2023/04/19 15:06:30;;;;;;;7.00;1.70;;;;;;;;;;4910249;28;20048;-75
2023/04/19 15:08:56;;;;;;;8.48;1.70;;;;;;;;;;4910510;28;20777;-72
2023/04/19 15:11:22;;;;;;;6.25;1.52;;;;;;;;;;4914363;28;20059;-72
2023/04/19 15:13:50;;;;;;;9.55;1.63;;;;;;;;;;4924611;28;20059;-74
2023/04/19 15:16:16;;;;;;;9.60;1.65;;;;;;;;;;4929565;28;20055;-76
2023/04/19 15:18:42;;;;;;;5.88;1.70;;;;;;;;;;4913322;28;20074;-72
2023/04/19 15:21:09;;;;;;;3.30;1.35;;;;;;;;;;4911725;28;20471;-72
2023/04/19 15:23:39;;;;;;;3.58;1.48;;;;;;;;;;4912760;28;20055;-72
2023/04/19 15:26:07;;;;;;;7.93;2.38;;;;;;;;;;4914101;28;20863;-74
2023/04/19 15:28:37;;;;;;;8.88;1.80;;;;;;;;;;4912499;28;20047;-74
2023/04/19 15:31:05;;;;;;;6.43;1.77;;;;;;;;;;4924724;28;20058;-75
2023/04/19 15:33:32;;;;;;;6.32;1.60;;;;;;;;;;4909074;28;20058;-74
2023/04/19 15:36:39;;;;;;;7.40;1.65;;;;;;;;;;4912064;28;22560;-77
2023/04/19 15:40:18;;;;;;;3.33;1.58;;;;;;;;;;4912290;28;20048;-75
2023/04/19 15:43:58;;;;;;;4.40;1.73;;;;;;;;;;4910003;28;20788;-74
2023/04/19 15:47:39;;;;;;;6.13;1.88;;;;;;;;;;4912412;28;20047;-73
2023/04/19 15:51:21;;;;;;;10.85;2.70;;;;;;;;;;4911451;28;20043;-73
2023/04/19 15:55:02;;;;;;;10.18;2.40;;;;;;;;;;4914300;28;20050;-74
2023/04/19 15:58:19;;;;;;;6.15;2.30;;;;;;;;;;4912289;28;20159;-72
2023/04/19 16:00:45;;;;;;;36.75;4.50;;;;;;;;;;4914180;28;20062;-72
2023/04/19 16:03:50;;;;;;;19.08;3.28;;;;;;;;;;4913541;28;20119;-72
2023/04/19 16:07:31;;;;;;;6.63;2.35;;;;;;;;;;4911600;28;20413;-74
2023/04/19 16:11:11;;;;;;;13.35;2.58;;;;;;;;;;4928563;28;20062;-73
2023/04/19 16:14:52;;;;;;;10.50;1.88;;;;;;;;;;4912846;28;20047;-75
2023/04/19 16:18:34;;;;;;;7.63;2.00;;;;;;;;;;4910479;28;20099;-75
2023/04/19 16:22:15;;;;;;;7.25;2.60;;;;;;;;;;4909103;28;20060;-75
2023/04/19 16:25:58;;;;;;;3.17;1.50;;;;;;;;;;4911919;28;20056;-75
2023/04/19 16:28:59;;;;;;;4.75;2.08;;;;;;;;;;4912594;28;20064;-74
2023/04/19 16:31:26;;;;;;;3.67;1.70;;;;;;;;;;4915024;28;20056;-75
2023/04/19 16:33:52;;;;;;;5.05;1.73;;;;;;;;;;4918662;28;20130;-76
2023/04/19 16:36:19;;;;;;;7.85;1.90;;;;;;;;;;4913498;28;20424;-75
2023/04/19 16:38:45;;;;;;;7.10;1.50;;;;;;;;;;4910982;28;20054;-75
2023/04/19 16:41:12;;;;;;;6.22;2.08;;;;;;;;;;4914544;28;20048;-76
2023/04/19 16:43:38;;;;;;;4.32;2.33;;;;;;;;;;4913384;28;20656;-74
2023/04/19 16:46:06;;;;;;;3.42;1.58;;;;;;;;;;4916075;28;20407;-75
2023/04/19 16:48:32;;;;;;;6.32;1.95;;;;;;;;;;4914568;28;20055;-75
2023/04/19 16:51:00;;;;;;;5.40;1.85;;;;;;;;;;4919566;28;20075;-74
2023/04/19 16:53:26;;;;;;;6.57;2.10;;;;;;;;;;4916711;28;20103;-74
2023/04/19 16:55:54;;;;;;;5.07;1.90;;;;;;;;;;4920801;28;20051;-73
2023/04/19 16:58:21;;;;;;;6.70;1.98;;;;;;;;;;4918123;28;20734;-74
2023/04/19 17:00:49;;;;;;;5.43;2.20;;;;;;;;;;4919724;28;20468;-76
2023/04/19 17:03:15;;;;;;;6.05;1.77;;;;;;;;;;4915886;28;20078;-73
2023/04/19 17:05:41;;;;;;;5.20;2.03;;;;;;;;;;4928818;28;20071;-73
2023/04/19 17:08:09;;;;;;;6.88;2.45;;;;;;;;;;4914803;28;20047;-74
2023/04/19 17:10:38;;;;;;;4.95;1.73;;;;;;;;;;4913417;28;20047;-73